Time;durP1;ratioP1;P1;durP2;ratioP2;P2;SDS_P1;SDS_P2;PMS_P1;PMS_P2;Temp;Humidity;BMP_temperature;BMP_pressure;BME280_temperature;BME280_humidity;BME280_pressure;Samples;Min_cycle;Max_cycle;Signal;HPM_P1;HPM_P2
2023/11/02 00:00:43;;;;;;;6.80;4.22;;;;;;;;;;5042566;28;20049;-58
2023/11/02 00:03:08;;;;;;;6.47;4.17;;;;;;;;;;5043846;28;20120;-58
2023/11/02 00:05:52;;;;;;;6.07;4.20;;;;;;;;;;5025406;28;20131;-56
2023/11/02 00:08:19;;;;;;;6.07;4.43;;;;;;;;;;5043512;28;20310;-57
2023/11/02 00:10:44;;;;;;;5.53;4.18;;;;;;;;;;5040534;28;20064;-56
2023/11/02 00:13:17;;;;;;;6.60;4.13;;;;;;;;;;5043131;28;20059;-59
2023/11/02 00:15:44;;;;;;;5.85;4.03;;;;;;;;;;5042374;28;20044;-57
2023/11/02 00:18:09;;;;;;;7.07;4.47;;;;;;;;;;5038633;28;20438;-57
2023/11/02 00:20:36;;;;;;;7.43;4.67;;;;;;;;;;5026081;28;20589;-56
2023/11/02 00:23:01;;;;;;;6.07;4.38;;;;;;;;;;5043088;28;20036;-56
2023/11/02 00:25:30;;;;;;;7.05;4.20;;;;;;;;;;5025800;28;20029;-58
2023/11/02 00:27:55;;;;;;;6.07;4.25;;;;;;;;;;5043274;28;20573;-56
2023/11/02 00:30:20;;;;;;;5.40;4.47;;;;;;;;;;5043196;28;20065;-59
2023/11/02 00:32:46;;;;;;;6.87;4.50;;;;;;;;;;5043019;28;20744;-57
2023/11/02 00:35:11;;;;;;;5.95;4.55;;;;;;;;;;5033388;28;20629;-59
2023/11/02 00:37:38;;;;;;;6.53;4.50;;;;;;;;;;5043767;28;20041;-55
2023/11/02 00:40:05;;;;;;;6.07;4.38;;;;;;;;;;5043235;28;20388;-56
2023/11/02 00:42:30;;;;;;;7.07;4.75;;;;;;;;;;5042938;28;20132;-60
2023/11/02 00:44:55;;;;;;;7.13;4.65;;;;;;;;;;5042352;28;20124;-59
2023/11/02 00:47:21;;;;;;;6.38;4.63;;;;;;;;;;5042689;28;20059;-55
2023/11/02 00:49:46;;;;;;;6.67;4.40;;;;;;;;;;5042672;28;20033;-56
2023/11/02 00:52:11;;;;;;;5.77;4.30;;;;;;;;;;5038613;28;20474;-57
2023/11/02 00:54:46;;;;;;;6.03;4.57;;;;;;;;;;5018898;28;20340;-57
2023/11/02 00:57:12;;;;;;;6.68;4.25;;;;;;;;;;5010932;28;20280;-57
2023/11/02 00:59:37;;;;;;;7.07;4.50;;;;;;;;;;5016166;28;20047;-55
2023/11/02 01:02:05;;;;;;;8.02;4.55;;;;;;;;;;5042422;28;20151;-56
2023/11/02 01:04:39;;;;;;;7.30;4.75;;;;;;;;;;5042770;28;20178;-57
2023/11/02 01:07:05;;;;;;;6.63;4.57;;;;;;;;;;5042078;28;20547;-56
2023/11/02 01:09:45;;;;;;;6.67;4.63;;;;;;;;;;5024683;28;20037;-58
2023/11/02 01:12:12;;;;;;;6.95;4.30;;;;;;;;;;5039824;28;20106;-57
2023/11/02 01:14:46;;;;;;;5.93;4.57;;;;;;;;;;5022048;28;20064;-57
2023/11/02 01:17:13;;;;;;;6.35;4.65;;;;;;;;;;5024547;28;20033;-58
2023/11/02 01:19:47;;;;;;;6.15;4.53;;;;;;;;;;5043098;28;20402;-55
2023/11/02 01:22:42;;;;;;;8.68;4.60;;;;;;;;;;5042481;28;20053;-57
2023/11/02 01:25:09;;;;;;;6.70;4.57;;;;;;;;;;4998088;28;20041;-56
2023/11/02 01:27:35;;;;;;;5.95;4.18;;;;;;;;;;5042453;28;21102;-57
2023/11/02 01:30:07;;;;;;;6.72;4.80;;;;;;;;;;5037910;28;20033;-56
2023/11/02 01:32:32;;;;;;;6.85;4.90;;;;;;;;;;5044528;28;20041;-56
2023/11/02 01:34:57;;;;;;;6.17;4.50;;;;;;;;;;5026252;28;20405;-57
2023/11/02 01:37:22;;;;;;;6.87;4.43;;;;;;;;;;5042549;28;20279;-55
2023/11/02 01:39:53;;;;;;;6.50;4.70;;;;;;;;;;5024530;28;20376;-58
2023/11/02 01:42:19;;;;;;;7.35;4.70;;;;;;;;;;5038331;28;20649;-56
2023/11/02 01:44:51;;;;;;;6.47;4.18;;;;;;;;;;5037188;28;20064;-56
2023/11/02 01:47:26;;;;;;;7.03;4.53;;;;;;;;;;5034372;28;20204;-56
2023/11/02 01:49:54;;;;;;;6.07;4.53;;;;;;;;;;5041821;28;20044;-56
2023/11/02 01:52:26;;;;;;;6.03;4.03;;;;;;;;;;5025827;28;20429;-58
2023/11/02 01:54:51;;;;;;;6.88;4.93;;;;;;;;;;5042349;28;20052;-57
2023/11/02 01:57:22;;;;;;;6.28;4.30;;;;;;;;;;5042901;28;20029;-57
2023/11/02 02:00:15;;;;;;;7.78;4.57;;;;;;;;;;5040199;28;20083;-56
2023/11/02 02:02:56;;;;;;;5.95;4.50;;;;;;;;;;5042559;28;20044;-58
2023/11/02 02:05:26;;;;;;;6.10;4.60;;;;;;;;;;5040418;28;20045;-57
2023/11/02 02:07:51;;;;;;;6.75;4.47;;;;;;;;;;5042824;28;20505;-57
2023/11/02 02:10:26;;;;;;;5.53;4.37;;;;;;;;;;5043439;28;20403;-57
2023/11/02 02:13:17;;;;;;;5.80;4.22;;;;;;;;;;5045588;28;20362;-56
2023/11/02 02:15:47;;;;;;;6.85;4.55;;;;;;;;;;4995679;28;20136;-57
2023/11/02 02:18:16;;;;;;;6.35;4.28;;;;;;;;;;5046570;28;20021;-57
2023/11/02 02:20:42;;;;;;;7.70;4.47;;;;;;;;;;5027642;28;20114;-56
2023/11/02 02:23:12;;;;;;;5.65;4.40;;;;;;;;;;5041553;28;20049;-58
2023/11/02 02:25:40;;;;;;;6.65;4.63;;;;;;;;;;5039551;28;20052;-57
2023/11/02 02:28:08;;;;;;;7.35;4.70;;;;;;;;;;5045636;28;20040;-57
2023/11/02 02:30:34;;;;;;;7.03;4.57;;;;;;;;;;5045945;28;20044;-57
2023/11/02 02:33:07;;;;;;;6.07;4.18;;;;;;;;;;5045321;28;20041;-57
2023/11/02 02:35:49;;;;;;;6.75;4.60;;;;;;;;;;5045230;28;20037;-57
2023/11/02 02:38:18;;;;;;;5.05;3.95;;;;;;;;;;5027426;28;20037;-59
2023/11/02 02:40:50;;;;;;;6.07;4.40;;;;;;;;;;5041462;28;20046;-56
2023/11/02 02:43:17;;;;;;;6.90;4.78;;;;;;;;;;5046882;28;20041;-56
2023/11/02 02:45:43;;;;;;;6.18;4.30;;;;;;;;;;5042763;28;20044;-57
2023/11/02 02:48:08;;;;;;;7.00;4.47;;;;;;;;;;5044164;28;20036;-58
2023/11/02 02:50:34;;;;;;;6.23;4.30;;;;;;;;;;5045462;28;20112;-58
2023/11/02 02:52:59;;;;;;;5.47;4.07;;;;;;;;;;5045625;28;20283;-58
2023/11/02 02:55:25;;;;;;;6.18;4.30;;;;;;;;;;5045351;28;20090;-57
2023/11/02 02:57:51;;;;;;;5.72;4.20;;;;;;;;;;5041114;28;20514;-57
2023/11/02 03:00:17;;;;;;;7.80;4.78;;;;;;;;;;5027175;28;20037;-56
2023/11/02 03:02:42;;;;;;;6.15;4.35;;;;;;;;;;5036221;28;20048;-57
2023/11/02 03:05:10;;;;;;;7.82;4.10;;;;;;;;;;5034494;28;20079;-56
2023/11/02 03:07:36;;;;;;;6.75;4.28;;;;;;;;;;5024509;28;20429;-57
2023/11/02 03:10:02;;;;;;;5.80;4.07;;;;;;;;;;5024614;28;20030;-56
2023/11/02 03:12:29;;;;;;;5.57;3.90;;;;;;;;;;5024910;28;20044;-56
2023/11/02 03:14:54;;;;;;;6.38;4.30;;;;;;;;;;5007550;28;20030;-55
2023/11/02 03:17:20;;;;;;;5.93;4.30;;;;;;;;;;5033147;28;20090;-56
2023/11/02 03:19:49;;;;;;;7.03;4.68;;;;;;;;;;5043771;28;20033;-58
2023/11/02 03:22:15;;;;;;;5.85;4.30;;;;;;;;;;5043726;28;20063;-55
2023/11/02 03:24:44;;;;;;;7.65;4.07;;;;;;;;;;5043426;28;20037;-58
2023/11/02 03:27:10;;;;;;;5.80;4.20;;;;;;;;;;5010351;28;20041;-55
2023/11/02 03:29:38;;;;;;;7.60;4.32;;;;;;;;;;5043659;28;20037;-57
2023/11/02 03:32:03;;;;;;;5.88;4.15;;;;;;;;;;5011046;28;20505;-58
2023/11/02 03:34:38;;;;;;;6.60;4.07;;;;;;;;;;5042131;28;20052;-57
2023/11/02 03:37:22;;;;;;;6.63;4.07;;;;;;;;;;5002985;28;20041;-57
2023/11/02 03:39:52;;;;;;;6.78;4.70;;;;;;;;;;5025624;28;20041;-55
2023/11/02 03:42:19;;;;;;;6.85;4.40;;;;;;;;;;5043577;28;20052;-59
2023/11/02 03:44:53;;;;;;;5.63;4.13;;;;;;;;;;5042144;28;20060;-56
2023/11/02 03:47:18;;;;;;;5.80;4.00;;;;;;;;;;5043952;28;20041;-56
2023/11/02 03:50:13;;;;;;;5.93;4.13;;;;;;;;;;5044085;28;20501;-56
2023/11/02 03:52:44;;;;;;;6.32;4.72;;;;;;;;;;4988589;28;20070;-56
2023/11/02 03:55:22;;;;;;;5.45;3.75;;;;;;;;;;5043351;28;20139;-55
2023/11/02 03:57:52;;;;;;;6.00;4.07;;;;;;;;;;5043701;28;20037;-55
2023/11/02 04:00:20;;;;;;;7.18;4.60;;;;;;;;;;5025867;28;20085;-56
2023/11/02 04:02:47;;;;;;;7.18;4.20;;;;;;;;;;5040683;28;20037;-57
2023/11/02 04:05:13;;;;;;;5.60;3.95;;;;;;;;;;5029044;28;20091;-58
2023/11/02 04:07:53;;;;;;;4.97;3.92;;;;;;;;;;5023378;28;20033;-58
2023/11/02 04:10:22;;;;;;;8.32;4.13;;;;;;;;;;5022574;28;20110;-57
2023/11/02 04:13:02;;;;;;;5.47;4.00;;;;;;;;;;5014747;28;20057;-58
2023/11/02 04:15:27;;;;;;;6.75;4.50;;;;;;;;;;5024944;28;20050;-56
2023/11/02 04:17:52;;;;;;;5.15;4.07;;;;;;;;;;5027898;28;20041;-58
2023/11/02 04:20:17;;;;;;;5.47;4.10;;;;;;;;;;5026053;28;20362;-58
2023/11/02 04:22:43;;;;;;;8.43;4.60;;;;;;;;;;5020138;28;20472;-57
2023/11/02 04:25:08;;;;;;;5.77;3.87;;;;;;;;;;5008725;28;20656;-57
2023/11/02 04:27:34;;;;;;;5.50;4.30;;;;;;;;;;5023976;28;20291;-57
2023/11/02 04:29:59;;;;;;;5.70;4.05;;;;;;;;;;5023707;28;20405;-59
2023/11/02 04:32:24;;;;;;;5.77;4.43;;;;;;;;;;5022758;28;20584;-57
2023/11/02 04:34:49;;;;;;;5.57;3.87;;;;;;;;;;5023182;28;20614;-57
2023/11/02 04:37:15;;;;;;;6.60;4.00;;;;;;;;;;5021783;28;20296;-57
2023/11/02 04:39:43;;;;;;;6.43;4.22;;;;;;;;;;5022578;28;20489;-58
2023/11/02 04:42:09;;;;;;;7.18;4.20;;;;;;;;;;5022216;28;20088;-56
2023/11/02 04:44:35;;;;;;;5.75;4.03;;;;;;;;;;5021845;28;20118;-59
2023/11/02 04:47:00;;;;;;;5.75;4.45;;;;;;;;;;5024538;28;20068;-59
2023/11/02 04:49:25;;;;;;;6.70;3.83;;;;;;;;;;5024730;28;20044;-58
2023/11/02 04:52:02;;;;;;;6.77;3.97;;;;;;;;;;5011552;28;20934;-57
2023/11/02 04:54:27;;;;;;;6.45;4.47;;;;;;;;;;5020183;28;20049;-60
2023/11/02 04:56:52;;;;;;;5.78;4.22;;;;;;;;;;4993316;28;20033;-56
2023/11/02 04:59:19;;;;;;;6.95;4.50;;;;;;;;;;5012521;28;20049;-57
2023/11/02 05:01:46;;;;;;;4.63;3.90;;;;;;;;;;5021237;28;20053;-57
2023/11/02 05:04:11;;;;;;;6.20;4.22;;;;;;;;;;5021515;28;20049;-57
2023/11/02 05:06:38;;;;;;;6.07;4.18;;;;;;;;;;5006982;28;20029;-57
2023/11/02 05:09:04;;;;;;;6.20;4.20;;;;;;;;;;5024071;28;20620;-56
2023/11/02 05:11:29;;;;;;;6.25;4.60;;;;;;;;;;5022198;28;20556;-56
2023/11/02 05:13:54;;;;;;;5.17;3.97;;;;;;;;;;5021953;28;20041;-57
2023/11/02 05:16:19;;;;;;;4.87;3.80;;;;;;;;;;5011732;28;20030;-56
2023/11/02 05:18:45;;;;;;;5.93;4.40;;;;;;;;;;5022726;28;20288;-56
2023/11/02 05:21:10;;;;;;;5.70;4.30;;;;;;;;;;5020860;28;20450;-57
2023/11/02 05:23:35;;;;;;;6.63;4.30;;;;;;;;;;5019930;28;20288;-58
2023/11/02 05:26:04;;;;;;;6.27;4.17;;;;;;;;;;5021439;28;20287;-59
2023/11/02 05:28:29;;;;;;;6.38;3.65;;;;;;;;;;5023049;28;20341;-56
2023/11/02 05:30:54;;;;;;;5.30;3.92;;;;;;;;;;5021973;28;20194;-57
2023/11/02 05:33:19;;;;;;;6.43;4.40;;;;;;;;;;5022920;28;20056;-56
2023/11/02 05:35:45;;;;;;;5.72;3.80;;;;;;;;;;4995790;28;20405;-58
2023/11/02 05:38:10;;;;;;;6.50;4.00;;;;;;;;;;5006510;28;20033;-57
2023/11/02 05:40:35;;;;;;;6.50;4.50;;;;;;;;;;5020836;28;20621;-59
2023/11/02 05:43:00;;;;;;;7.85;4.32;;;;;;;;;;5014070;28;20393;-59
2023/11/02 05:45:26;;;;;;;6.72;4.28;;;;;;;;;;5024011;28;20460;-59
2023/11/02 05:47:51;;;;;;;7.55;4.10;;;;;;;;;;5026979;28;20025;-57
2023/11/02 05:50:17;;;;;;;6.37;4.30;;;;;;;;;;5025717;28;20038;-58
2023/11/02 05:52:42;;;;;;;5.47;3.75;;;;;;;;;;5026196;28;20098;-58
2023/11/02 05:55:08;;;;;;;6.22;4.38;;;;;;;;;;5025217;28;20045;-56
2023/11/02 05:57:33;;;;;;;8.00;4.00;;;;;;;;;;5027026;28;20477;-57
2023/11/02 05:59:59;;;;;;;6.53;4.75;;;;;;;;;;5017751;28;20310;-58
2023/11/02 06:02:25;;;;;;;5.50;4.15;;;;;;;;;;5026920;28;20053;-57
2023/11/02 06:04:50;;;;;;;6.47;4.10;;;;;;;;;;5025950;28;20158;-58
2023/11/02 06:07:15;;;;;;;5.73;4.03;;;;;;;;;;5023978;28;20523;-57
2023/11/02 06:09:42;;;;;;;6.07;4.17;;;;;;;;;;5010694;28;20288;-57
2023/11/02 06:12:09;;;;;;;6.05;4.10;;;;;;;;;;5026688;28;20032;-58
2023/11/02 06:14:34;;;;;;;8.43;4.53;;;;;;;;;;5026529;28;20546;-57
2023/11/02 06:17:00;;;;;;;6.25;4.35;;;;;;;;;;5011807;28;20253;-57
2023/11/02 06:19:26;;;;;;;6.20;4.57;;;;;;;;;;5024492;28;20053;-57
2023/11/02 06:21:51;;;;;;;7.53;4.63;;;;;;;;;;5023978;28;20053;-56
2023/11/02 06:24:16;;;;;;;9.20;4.50;;;;;;;;;;5026134;28;20288;-56
2023/11/02 06:26:42;;;;;;;6.68;4.25;;;;;;;;;;5016311;28;20045;-55
2023/11/02 06:29:08;;;;;;;7.28;4.30;;;;;;;;;;5024763;28;20417;-57
2023/11/02 06:31:36;;;;;;;6.00;4.18;;;;;;;;;;5023898;28;20033;-57
2023/11/02 06:34:01;;;;;;;9.13;4.68;;;;;;;;;;5024621;28;20131;-59
2023/11/02 06:36:26;;;;;;;5.73;4.87;;;;;;;;;;5024386;28;20101;-58
2023/11/02 06:38:51;;;;;;;6.83;4.77;;;;;;;;;;5024682;28;20423;-59
2023/11/02 06:41:17;;;;;;;5.53;4.07;;;;;;;;;;5009377;28;20673;-58
2023/11/02 06:43:42;;;;;;;9.43;4.63;;;;;;;;;;5017609;28;20436;-59
2023/11/02 06:46:07;;;;;;;7.13;4.47;;;;;;;;;;5016187;28;20500;-59
2023/11/02 06:48:33;;;;;;;6.13;4.30;;;;;;;;;;5003783;28;20497;-57
2023/11/02 06:50:58;;;;;;;6.65;4.60;;;;;;;;;;5021006;28;20663;-59
2023/11/02 06:53:23;;;;;;;7.97;4.70;;;;;;;;;;5022915;28;20045;-59
2023/11/02 06:55:49;;;;;;;7.72;4.63;;;;;;;;;;5024822;28;20748;-59
2023/11/02 06:58:15;;;;;;;7.75;4.40;;;;;;;;;;5023749;28;20573;-58
2023/11/02 07:00:41;;;;;;;5.93;4.53;;;;;;;;;;5024605;28;20037;-58
2023/11/02 07:03:07;;;;;;;7.38;4.95;;;;;;;;;;5024525;28;20025;-58
2023/11/02 07:05:32;;;;;;;7.67;4.60;;;;;;;;;;5025080;28;20034;-58
2023/11/02 07:07:57;;;;;;;6.40;4.40;;;;;;;;;;5024901;28;20318;-58
2023/11/02 07:10:23;;;;;;;9.50;5.05;;;;;;;;;;5025269;28;20644;-57
2023/11/02 07:12:48;;;;;;;7.53;4.70;;;;;;;;;;5011167;28;20024;-60
2023/11/02 07:15:13;;;;;;;6.07;4.30;;;;;;;;;;5026712;28;20516;-58
2023/11/02 07:17:39;;;;;;;7.32;4.90;;;;;;;;;;5023698;28;20484;-58
2023/11/02 07:20:04;;;;;;;6.70;4.55;;;;;;;;;;5026029;28;20031;-58
2023/11/02 07:22:30;;;;;;;6.18;4.70;;;;;;;;;;5025014;28;20111;-58
2023/11/02 07:24:55;;;;;;;6.38;4.70;;;;;;;;;;5022257;28;20139;-58
2023/11/02 07:27:20;;;;;;;6.38;4.30;;;;;;;;;;5021735;28;20500;-58
2023/11/02 07:29:46;;;;;;;7.53;4.90;;;;;;;;;;5022884;28;20531;-57
2023/11/02 07:32:12;;;;;;;8.57;4.40;;;;;;;;;;5024067;28;20493;-57
2023/11/02 07:34:37;;;;;;;6.28;4.32;;;;;;;;;;4993890;28;20020;-59
2023/11/02 07:37:03;;;;;;;7.63;4.40;;;;;;;;;;5010743;28;20032;-57
2023/11/02 07:39:28;;;;;;;8.57;4.50;;;;;;;;;;5023861;28;20277;-59
2023/11/02 07:41:54;;;;;;;6.82;4.60;;;;;;;;;;5025121;28;20152;-57
2023/11/02 07:44:19;;;;;;;8.48;4.82;;;;;;;;;;5025973;28;20695;-58
2023/11/02 07:46:44;;;;;;;7.00;4.40;;;;;;;;;;5024655;28;20037;-58
2023/11/02 07:49:09;;;;;;;7.22;4.97;;;;;;;;;;5022813;28;20271;-58
2023/11/02 07:51:35;;;;;;;8.30;4.75;;;;;;;;;;5022724;28;20482;-57
2023/11/02 07:54:01;;;;;;;6.97;4.50;;;;;;;;;;5021944;28;20020;-59
2023/11/02 07:56:26;;;;;;;8.05;5.10;;;;;;;;;;5024100;28;20031;-58
2023/11/02 07:58:51;;;;;;;6.40;4.43;;;;;;;;;;5023305;28;20033;-58
2023/11/02 08:01:17;;;;;;;7.50;4.93;;;;;;;;;;5024912;28;20037;-57
2023/11/02 08:03:43;;;;;;;7.05;4.75;;;;;;;;;;5022757;28;20482;-58
2023/11/02 08:06:09;;;;;;;5.80;4.53;;;;;;;;;;5020869;28;20017;-59
2023/11/02 08:08:34;;;;;;;6.63;4.63;;;;;;;;;;5023281;28;20382;-59
2023/11/02 08:10:59;;;;;;;6.60;4.43;;;;;;;;;;5010502;28;20025;-58
2023/11/02 08:13:25;;;;;;;7.37;4.40;;;;;;;;;;5023222;28;20494;-57
2023/11/02 08:15:50;;;;;;;6.57;4.70;;;;;;;;;;5022207;28;20338;-61
2023/11/02 08:18:15;;;;;;;6.43;4.50;;;;;;;;;;5024851;28;20276;-59
2023/11/02 08:20:41;;;;;;;5.68;4.22;;;;;;;;;;5023377;28;20569;-57
2023/11/02 08:23:06;;;;;;;6.13;4.60;;;;;;;;;;5023308;28;20029;-58
2023/11/02 08:25:31;;;;;;;5.78;4.28;;;;;;;;;;5019794;28;20023;-57
2023/11/02 08:27:59;;;;;;;7.70;4.90;;;;;;;;;;5022590;28;20068;-57
2023/11/02 08:30:25;;;;;;;5.28;4.20;;;;;;;;;;5006080;28;20029;-58
2023/11/02 08:32:53;;;;;;;7.13;4.40;;;;;;;;;;5008906;28;20095;-58
2023/11/02 08:35:18;;;;;;;7.22;4.70;;;;;;;;;;5005464;28;20033;-57
2023/11/02 08:37:45;;;;;;;5.70;4.15;;;;;;;;;;5023161;28;20041;-57
2023/11/02 08:40:10;;;;;;;7.35;5.15;;;;;;;;;;5020789;28;20294;-58
2023/11/02 08:42:36;;;;;;;7.55;4.55;;;;;;;;;;5023748;28;20186;-59
2023/11/02 08:45:01;;;;;;;8.13;4.50;;;;;;;;;;5022994;28;20038;-58
2023/11/02 08:47:27;;;;;;;4.93;4.10;;;;;;;;;;5024231;28;20038;-59
2023/11/02 08:49:53;;;;;;;7.38;4.85;;;;;;;;;;5022456;28;20520;-58
2023/11/02 08:52:18;;;;;;;6.55;4.47;;;;;;;;;;5022881;28;20040;-59
2023/11/02 08:54:43;;;;;;;5.55;4.00;;;;;;;;;;5013547;28;20076;-58
2023/11/02 08:57:09;;;;;;;5.83;4.40;;;;;;;;;;5023633;28;20029;-59
2023/11/02 08:59:34;;;;;;;5.40;4.05;;;;;;;;;;5007498;28;20049;-58
2023/11/02 09:01:59;;;;;;;6.77;4.80;;;;;;;;;;5022152;28;20045;-57
2023/11/02 09:04:25;;;;;;;7.40;4.20;;;;;;;;;;5021074;28;20303;-58
2023/11/02 09:06:50;;;;;;;6.10;4.00;;;;;;;;;;5022036;28;20034;-58
2023/11/02 09:09:15;;;;;;;6.18;4.28;;;;;;;;;;5007395;28;20303;-61
2023/11/02 09:11:41;;;;;;;6.30;4.13;;;;;;;;;;5022412;28;20530;-58
2023/11/02 09:14:06;;;;;;;7.30;4.10;;;;;;;;;;5022147;28;20043;-58
2023/11/02 09:16:31;;;;;;;6.10;4.53;;;;;;;;;;5023297;28;20037;-57
2023/11/02 09:18:59;;;;;;;6.35;4.10;;;;;;;;;;5022684;28;20040;-60
2023/11/02 09:21:25;;;;;;;6.75;4.10;;;;;;;;;;5022375;28;20085;-59
2023/11/02 09:23:50;;;;;;;5.38;4.38;;;;;;;;;;5022650;28;20128;-60
2023/11/02 09:26:15;;;;;;;5.43;4.03;;;;;;;;;;5025002;28;20492;-58
2023/11/02 09:28:41;;;;;;;5.88;4.25;;;;;;;;;;5025908;28;20053;-58
2023/11/02 09:31:08;;;;;;;5.30;4.05;;;;;;;;;;5027949;28;20147;-60
2023/11/02 09:33:34;;;;;;;5.88;4.15;;;;;;;;;;5023378;28;20056;-60
2023/11/02 09:36:00;;;;;;;5.20;4.00;;;;;;;;;;5023029;28;20037;-58
2023/11/02 09:38:25;;;;;;;6.10;4.22;;;;;;;;;;5022281;28;20045;-58
2023/11/02 09:40:51;;;;;;;6.30;4.00;;;;;;;;;;5022418;28;20044;-59
2023/11/02 09:43:18;;;;;;;6.22;3.90;;;;;;;;;;5007441;28;20037;-58
2023/11/02 09:45:44;;;;;;;6.47;4.30;;;;;;;;;;5009833;28;20037;-58
2023/11/02 09:48:09;;;;;;;6.32;4.28;;;;;;;;;;5022281;28;20507;-58
2023/11/02 09:50:34;;;;;;;7.25;4.38;;;;;;;;;;5023484;28;20061;-58
2023/11/02 10:05:10;;;;;;;5.93;4.25;;;;;;;;;;5026451;28;20162;-58
2023/11/02 10:07:36;;;;;;;5.53;4.03;;;;;;;;;;5026914;28;20759;-57
2023/11/02 10:10:02;;;;;;;6.97;4.10;;;;;;;;;;5031563;28;20140;-58
2023/11/02 10:12:27;;;;;;;6.60;3.83;;;;;;;;;;5033245;28;20120;-58
2023/11/02 10:14:52;;;;;;;5.60;4.00;;;;;;;;;;5039401;28;20097;-58
2023/11/02 10:17:19;;;;;;;5.63;3.97;;;;;;;;;;5037508;28;20133;-57
2023/11/02 10:19:45;;;;;;;6.05;3.78;;;;;;;;;;5032079;28;20048;-58
2023/11/02 10:22:10;;;;;;;5.93;3.73;;;;;;;;;;5035427;28;20128;-59
2023/11/02 10:24:36;;;;;;;5.85;3.88;;;;;;;;;;5035361;28;20288;-58
2023/11/02 10:27:04;;;;;;;4.70;3.75;;;;;;;;;;5037514;28;20371;-60
2023/11/02 10:29:30;;;;;;;5.30;3.85;;;;;;;;;;5033689;28;20041;-58
2023/11/02 10:31:55;;;;;;;6.13;3.88;;;;;;;;;;5042332;28;20519;-58
2023/11/02 10:34:20;;;;;;;5.95;3.80;;;;;;;;;;5034753;28;20033;-58
2023/11/02 10:36:49;;;;;;;5.78;3.78;;;;;;;;;;5024103;28;20070;-58
2023/11/02 10:39:21;;;;;;;4.50;3.40;;;;;;;;;;5036679;28;20106;-58
2023/11/02 10:41:52;;;;;;;6.30;4.05;;;;;;;;;;5019551;28;20664;-61
2023/11/02 10:44:17;;;;;;;5.53;4.03;;;;;;;;;;5029184;28;20087;-59
2023/11/02 10:46:44;;;;;;;5.97;3.97;;;;;;;;;;5015867;28;20041;-58
2023/11/02 10:49:11;;;;;;;5.63;3.88;;;;;;;;;;5018884;28;20379;-59
2023/11/02 10:51:36;;;;;;;5.35;3.88;;;;;;;;;;5013541;28;20399;-58
2023/11/02 10:54:02;;;;;;;6.10;3.50;;;;;;;;;;5027479;28;20139;-57
2023/11/02 10:56:30;;;;;;;6.18;3.85;;;;;;;;;;5013188;28;20299;-58
2023/11/02 10:58:56;;;;;;;6.18;3.70;;;;;;;;;;5027440;28;20037;-57
2023/11/02 11:01:23;;;;;;;6.15;4.07;;;;;;;;;;5026380;28;20052;-57
2023/11/02 11:03:50;;;;;;;4.90;3.78;;;;;;;;;;5029192;28;20044;-57
2023/11/02 11:06:16;;;;;;;6.93;3.85;;;;;;;;;;5026033;28;20951;-59
2023/11/02 11:08:41;;;;;;;5.53;3.70;;;;;;;;;;5017059;28;20104;-58
2023/11/02 11:11:06;;;;;;;7.77;4.07;;;;;;;;;;5017916;28;20395;-58
2023/11/02 11:13:32;;;;;;;6.23;3.70;;;;;;;;;;5026895;28;20049;-57
2023/11/02 11:15:57;;;;;;;6.47;4.20;;;;;;;;;;5027683;28;20299;-59
2023/11/02 11:18:23;;;;;;;6.68;3.72;;;;;;;;;;5017618;28;20600;-57
2023/11/02 11:20:49;;;;;;;4.22;3.42;;;;;;;;;;5027596;28;20047;-58
2023/11/02 11:23:15;;;;;;;6.95;3.85;;;;;;;;;;5014854;28;20095;-58
2023/11/02 11:25:59;;;;;;;6.45;4.03;;;;;;;;;;5037231;28;20033;-58
2023/11/02 11:28:31;;;;;;;5.13;4.00;;;;;;;;;;5028319;28;20127;-58
2023/11/02 11:30:57;;;;;;;6.80;3.65;;;;;;;;;;5033851;28;20045;-58
2023/11/02 11:33:41;;;;;;;7.03;3.78;;;;;;;;;;5037544;28;20041;-57
2023/11/02 11:36:20;;;;;;;6.18;3.92;;;;;;;;;;5027366;28;20044;-58
2023/11/02 11:38:45;;;;;;;6.70;4.30;;;;;;;;;;5028634;28;20598;-58
2023/11/02 11:41:29;;;;;;;6.05;3.78;;;;;;;;;;5029725;28;20548;-59
2023/11/02 11:44:01;;;;;;;7.07;4.10;;;;;;;;;;5026758;28;20067;-58
2023/11/02 11:46:41;;;;;;;6.70;3.95;;;;;;;;;;5027884;28;20037;-59
2023/11/02 11:49:06;;;;;;;;;;;;;;;;;;5029641;28;20055;-60
2023/11/02 11:51:34;;;;;;;6.13;3.78;;;;;;;;;;5026863;28;19999;-60
2023/11/02 11:54:13;;;;;;;5.53;4.00;;;;;;;;;;5028905;28;20033;-58
2023/11/02 11:56:38;;;;;;;5.93;4.20;;;;;;;;;;5025250;28;20049;-59
2023/11/02 11:59:03;;;;;;;6.28;3.78;;;;;;;;;;5028822;28;20521;-59
2023/11/02 12:01:29;;;;;;;5.67;4.00;;;;;;;;;;5027256;28;20044;-58
2023/11/02 12:03:54;;;;;;;6.18;4.07;;;;;;;;;;5026597;28;20671;-58
2023/11/02 12:06:38;;;;;;;5.83;3.93;;;;;;;;;;5027652;28;20112;-57
2023/11/02 12:09:03;;;;;;;6.47;4.05;;;;;;;;;;5028755;28;20311;-58
2023/11/02 12:11:29;;;;;;;5.65;3.67;;;;;;;;;;5014686;28;20061;-59
2023/11/02 12:13:57;;;;;;;6.78;3.75;;;;;;;;;;5028462;28;20037;-57
2023/11/02 12:16:29;;;;;;;6.38;4.00;;;;;;;;;;5035882;28;20137;-58
2023/11/02 12:18:54;;;;;;;7.32;4.22;;;;;;;;;;5027805;28;20037;-57
2023/11/02 12:21:20;;;;;;;6.90;4.40;;;;;;;;;;5012317;28;20057;-60
2023/11/02 12:23:46;;;;;;;6.63;4.35;;;;;;;;;;5030437;28;20251;-57
2023/11/02 12:26:11;;;;;;;8.27;4.40;;;;;;;;;;5032451;28;20101;-59
2023/11/02 12:28:46;;;;;;;5.93;4.05;;;;;;;;;;5012922;28;20041;-59
2023/11/02 12:31:13;;;;;;;7.78;4.28;;;;;;;;;;5034090;28;20052;-60
2023/11/02 12:33:38;;;;;;;6.20;4.38;;;;;;;;;;5036480;28;20453;-59
2023/11/02 12:36:04;;;;;;;6.55;3.92;;;;;;;;;;5032277;28;20179;-58
2023/11/02 12:38:35;;;;;;;8.45;4.65;;;;;;;;;;5031374;28;20095;-57
2023/11/02 12:41:02;;;;;;;7.18;4.55;;;;;;;;;;5031353;28;20076;-60
2023/11/02 12:43:27;;;;;;;6.18;4.32;;;;;;;;;;5034414;28;20038;-59
2023/11/02 12:46:00;;;;;;;6.57;4.25;;;;;;;;;;5023464;28;20378;-59
2023/11/02 12:48:25;;;;;;;6.25;3.97;;;;;;;;;;5033041;28;20029;-57
2023/11/02 12:50:51;;;;;;;5.88;4.00;;;;;;;;;;5027055;28;20045;-58
2023/11/02 12:53:26;;;;;;;6.50;4.40;;;;;;;;;;5035484;28;20398;-59
2023/11/02 12:55:53;;;;;;;8.50;4.43;;;;;;;;;;5032809;28;20045;-58
2023/11/02 12:58:18;;;;;;;6.13;4.43;;;;;;;;;;5032365;28;20186;-58
2023/11/02 13:00:43;;;;;;;5.90;4.60;;;;;;;;;;5014770;28;20128;-59
2023/11/02 13:03:12;;;;;;;6.13;3.93;;;;;;;;;;5006021;28;20406;-58
2023/11/02 13:05:38;;;;;;;5.50;4.18;;;;;;;;;;5008928;28;20300;-59
2023/11/02 13:08:03;;;;;;;7.00;4.30;;;;;;;;;;5035685;28;20487;-57
2023/11/02 13:10:28;;;;;;;6.88;4.20;;;;;;;;;;5029734;28;20721;-57
2023/11/02 13:12:55;;;;;;;6.40;4.57;;;;;;;;;;5032015;28;20512;-59
2023/11/02 13:15:21;;;;;;;10.73;6.07;;;;;;;;;;5032464;28;20535;-59
2023/11/02 13:17:46;;;;;;;9.90;6.68;;;;;;;;;;5019069;28;20121;-60
2023/11/02 13:20:15;;;;;;;10.57;6.57;;;;;;;;;;5027641;28;20087;-60
2023/11/02 13:22:41;;;;;;;10.70;6.60;;;;;;;;;;5033819;28;20043;-60
2023/11/02 13:25:06;;;;;;;12.20;7.35;;;;;;;;;;5033742;28;20025;-59
2023/11/02 13:27:32;;;;;;;13.75;7.55;;;;;;;;;;5035834;28;20028;-59
2023/11/02 13:29:59;;;;;;;12.85;8.40;;;;;;;;;;5032752;28;20029;-59
2023/11/02 13:32:25;;;;;;;12.60;7.68;;;;;;;;;;5029496;28;20421;-60
2023/11/02 13:34:50;;;;;;;14.43;8.48;;;;;;;;;;5017635;28;20087;-59
2023/11/02 13:37:16;;;;;;;12.13;8.03;;;;;;;;;;5032996;28;20112;-58
2023/11/02 13:39:42;;;;;;;12.40;8.25;;;;;;;;;;5032487;28;20271;-59
2023/11/02 13:42:08;;;;;;;11.93;8.20;;;;;;;;;;5024079;28;20071;-58
2023/11/02 13:44:33;;;;;;;14.77;8.20;;;;;;;;;;5023273;28;20021;-58
2023/11/02 13:46:59;;;;;;;14.47;8.87;;;;;;;;;;5023504;28;20097;-60
2023/11/02 13:49:25;;;;;;;15.77;9.48;;;;;;;;;;5025221;28;20303;-58
2023/11/02 13:51:50;;;;;;;17.20;9.40;;;;;;;;;;5016442;28;20102;-59
2023/11/02 13:54:15;;;;;;;15.63;9.25;;;;;;;;;;5032187;28;20072;-59
2023/11/02 13:56:40;;;;;;;15.95;9.32;;;;;;;;;;5013822;28;20091;-59
2023/11/02 13:59:06;;;;;;;14.67;9.13;;;;;;;;;;5034051;28;20095;-59
2023/11/02 14:01:31;;;;;;;14.67;8.43;;;;;;;;;;5029442;28;20353;-59
2023/11/02 14:03:57;;;;;;;14.88;8.82;;;;;;;;;;5029430;28;20296;-59
2023/11/02 14:06:22;;;;;;;14.15;8.48;;;;;;;;;;5038206;28;20048;-59
2023/11/02 14:08:47;;;;;;;14.80;8.57;;;;;;;;;;5019714;28;20041;-59
2023/11/02 14:11:12;;;;;;;12.70;9.00;;;;;;;;;;5046844;28;20267;-58
2023/11/02 14:13:39;;;;;;;17.40;9.57;;;;;;;;;;5046988;28;20355;-59
2023/11/02 14:16:05;;;;;;;12.93;8.52;;;;;;;;;;5045338;28;20294;-60
2023/11/02 14:18:31;;;;;;;14.32;8.73;;;;;;;;;;5046998;28;20509;-59
2023/11/02 14:20:56;;;;;;;13.75;9.13;;;;;;;;;;5047675;28;20434;-58
2023/11/02 14:23:22;;;;;;;14.02;8.98;;;;;;;;;;5046548;28;20120;-59
2023/11/02 14:25:48;;;;;;;13.70;8.37;;;;;;;;;;5047144;28;20033;-59
2023/11/02 14:28:13;;;;;;;13.45;8.70;;;;;;;;;;5047089;28;20449;-58
2023/11/02 14:30:38;;;;;;;17.07;9.33;;;;;;;;;;5048037;28;20040;-58
2023/11/02 14:33:04;;;;;;;18.23;9.60;;;;;;;;;;5046888;28;20763;-57
2023/11/02 14:35:30;;;;;;;14.75;9.10;;;;;;;;;;5046591;28;20413;-58
2023/11/02 14:37:55;;;;;;;15.90;9.95;;;;;;;;;;5046508;28;20029;-59
2023/11/02 14:40:21;;;;;;;17.77;9.27;;;;;;;;;;5047289;28;20488;-58
2023/11/02 14:42:47;;;;;;;18.65;9.52;;;;;;;;;;5028743;28;20513;-57
2023/11/02 14:45:13;;;;;;;16.10;9.83;;;;;;;;;;5046368;28;20516;-59
2023/11/02 14:47:38;;;;;;;17.35;10.13;;;;;;;;;;5046082;28;20307;-60
2023/11/02 14:50:04;;;;;;;15.00;9.80;;;;;;;;;;5046793;28;20033;-59
2023/11/02 14:52:31;;;;;;;15.00;10.30;;;;;;;;;;5046546;28;20455;-59